CheckWX is a tool to help pilots better visualize weather data.  It is not intended as a substitute for an official pre-flight weather briefing.

03:07:35 UTC

KHDO METAR
South Texas Regional at Hondo Airport
Hondo, Texas, USA
Current

1 hour ago

KHDO 230151Z AUTO 15012KT 10SM CLR 28/20 A2998 RMK AO2 SLP137 T02830200
Observed
Jul-23 @ 01:51 UTC
Wind
  • 150° at 12 KTS
Visibility
10 SM
Flight Rules
VFR
Cloud Levels
  • Clear skies
Temperature
28°C / 82°F
Dewpoint
20°C / 68°F
Heat Index
29°C / 85°F
Humidity
62%
Altimeter
29.98" Hg
Pressure
1015.22 hPa
Previous

2 hours ago

KHDO 230051Z AUTO 13008KT 10SM CLR 33/15 A2996 RMK AO2 SLP128 T03330150
Observed
Jul-23 @ 00:51 UTC
Wind
  • 130° at 8 KTS
Visibility
10 SM
Flight Rules
VFR
Cloud Levels
  • Clear skies
Temperature
33°C / 91°F
Dewpoint
15°C / 59°F
Humidity
34%
Altimeter
29.96" Hg
Pressure
1014.52 hPa
Previous

3 hours ago

KHDO 222351Z AUTO 14010KT 10SM CLR 34/16 A2996 RMK AO2 SLP128 T03440161 10356 20317 55006
Observed
Jul-22 @ 23:51 UTC
Wind
  • 140° at 10 KTS
Visibility
10 SM
Flight Rules
VFR
Cloud Levels
  • Clear skies
Temperature
34°C / 93°F
Dewpoint
16°C / 61°F
Humidity
34%
Altimeter
29.96" Hg
Pressure
1014.52 hPa